sensor_id;sensor_type;location;lat;lon;timestamp;P1;durP1;ratioP1;P2;durP2;ratioP2
2031;SDS011;27625;50.422;7.944;2023-02-13T00:02:37;25.20;;;15.10;;
2031;SDS011;27625;50.422;7.944;2023-02-13T00:05:04;23.63;;;14.47;;
2031;SDS011;27625;50.422;7.944;2023-02-13T00:07:31;28.23;;;15.80;;
2031;SDS011;27625;50.422;7.944;2023-02-13T00:09:58;26.87;;;16.33;;
2031;SDS011;27625;50.422;7.944;2023-02-13T00:12:24;26.67;;;15.03;;
2031;SDS011;27625;50.422;7.944;2023-02-13T00:14:52;27.20;;;15.37;;
2031;SDS011;27625;50.422;7.944;2023-02-13T00:17:19;23.67;;;14.30;;
2031;SDS011;27625;50.422;7.944;2023-02-13T00:19:47;27.50;;;16.33;;
2031;SDS011;27625;50.422;7.944;2023-02-13T00:22:13;25.90;;;15.30;;
2031;SDS011;27625;50.422;7.944;2023-02-13T00:24:43;28.27;;;16.07;;
2031;SDS011;27625;50.422;7.944;2023-02-13T00:27:09;27.37;;;17.03;;
2031;SDS011;27625;50.422;7.944;2023-02-13T00:29:36;32.60;;;15.43;;
2031;SDS011;27625;50.422;7.944;2023-02-13T00:32:02;23.83;;;15.40;;
2031;SDS011;27625;50.422;7.944;2023-02-13T00:34:29;24.40;;;15.40;;
2031;SDS011;27625;50.422;7.944;2023-02-13T00:36:57;24.73;;;15.83;;
2031;SDS011;27625;50.422;7.944;2023-02-13T00:39:24;28.57;;;16.33;;
2031;SDS011;27625;50.422;7.944;2023-02-13T00:41:51;32.87;;;16.67;;
2031;SDS011;27625;50.422;7.944;2023-02-13T00:44:19;28.80;;;15.90;;
2031;SDS011;27625;50.422;7.944;2023-02-13T00:46:48;25.37;;;15.70;;
2031;SDS011;27625;50.422;7.944;2023-02-13T00:49:17;28.07;;;15.80;;
2031;SDS011;27625;50.422;7.944;2023-02-13T00:51:44;27.77;;;15.73;;
2031;SDS011;27625;50.422;7.944;2023-02-13T00:54:13;26.43;;;16.07;;
2031;SDS011;27625;50.422;7.944;2023-02-13T00:56:39;24.83;;;15.63;;
2031;SDS011;27625;50.422;7.944;2023-02-13T00:59:06;28.33;;;16.87;;
2031;SDS011;27625;50.422;7.944;2023-02-13T01:01:33;27.00;;;16.40;;
2031;SDS011;27625;50.422;7.944;2023-02-13T01:03:59;26.47;;;16.53;;
2031;SDS011;27625;50.422;7.944;2023-02-13T01:06:26;25.77;;;14.73;;
2031;SDS011;27625;50.422;7.944;2023-02-13T01:08:53;27.80;;;16.07;;
2031;SDS011;27625;50.422;7.944;2023-02-13T01:11:23;26.40;;;17.07;;
2031;SDS011;27625;50.422;7.944;2023-02-13T01:13:51;25.33;;;16.13;;
2031;SDS011;27625;50.422;7.944;2023-02-13T01:16:20;28.63;;;17.10;;
2031;SDS011;27625;50.422;7.944;2023-02-13T01:18:46;25.70;;;16.50;;
2031;SDS011;27625;50.422;7.944;2023-02-13T01:21:14;29.33;;;17.23;;
2031;SDS011;27625;50.422;7.944;2023-02-13T01:23:43;25.53;;;15.17;;
2031;SDS011;27625;50.422;7.944;2023-02-13T01:26:11;28.73;;;17.00;;
2031;SDS011;27625;50.422;7.944;2023-02-13T01:28:42;33.10;;;17.80;;
2031;SDS011;27625;50.422;7.944;2023-02-13T01:31:10;31.87;;;17.30;;
2031;SDS011;27625;50.422;7.944;2023-02-13T01:33:37;28.83;;;16.67;;
2031;SDS011;27625;50.422;7.944;2023-02-13T01:36:06;29.50;;;17.30;;
2031;SDS011;27625;50.422;7.944;2023-02-13T01:38:35;31.50;;;17.50;;
2031;SDS011;27625;50.422;7.944;2023-02-13T01:41:02;26.80;;;16.43;;
2031;SDS011;27625;50.422;7.944;2023-02-13T01:43:48;31.13;;;17.23;;
2031;SDS011;27625;50.422;7.944;2023-02-13T01:46:21;28.57;;;16.40;;
2031;SDS011;27625;50.422;7.944;2023-02-13T01:48:50;26.43;;;16.73;;
2031;SDS011;27625;50.422;7.944;2023-02-13T01:51:19;25.63;;;16.50;;
2031;SDS011;27625;50.422;7.944;2023-02-13T01:53:54;28.93;;;16.40;;
2031;SDS011;27625;50.422;7.944;2023-02-13T01:56:26;30.13;;;17.70;;
2031;SDS011;27625;50.422;7.944;2023-02-13T01:58:58;29.80;;;16.30;;
2031;SDS011;27625;50.422;7.944;2023-02-13T02:01:26;31.47;;;18.30;;
2031;SDS011;27625;50.422;7.944;2023-02-13T02:03:57;28.57;;;17.20;;
2031;SDS011;27625;50.422;7.944;2023-02-13T02:06:31;27.03;;;15.10;;
2031;SDS011;27625;50.422;7.944;2023-02-13T02:09:02;26.27;;;16.73;;
2031;SDS011;27625;50.422;7.944;2023-02-13T02:11:35;29.20;;;16.43;;
2031;SDS011;27625;50.422;7.944;2023-02-13T02:14:09;28.77;;;16.07;;
2031;SDS011;27625;50.422;7.944;2023-02-13T02:16:36;27.97;;;17.00;;
2031;SDS011;27625;50.422;7.944;2023-02-13T02:19:03;26.50;;;15.90;;
2031;SDS011;27625;50.422;7.944;2023-02-13T02:33:31;25.80;;;15.80;;
2031;SDS011;27625;50.422;7.944;2023-02-13T02:36:11;23.87;;;13.97;;
2031;SDS011;27625;50.422;7.944;2023-02-13T02:38:56;24.00;;;14.67;;
2031;SDS011;27625;50.422;7.944;2023-02-13T02:41:34;21.57;;;13.70;;
2031;SDS011;27625;50.422;7.944;2023-02-13T02:44:29;22.33;;;14.23;;
2031;SDS011;27625;50.422;7.944;2023-02-13T02:47:03;24.27;;;15.23;;
2031;SDS011;27625;50.422;7.944;2023-02-13T02:49:59;24.90;;;15.90;;
2031;SDS011;27625;50.422;7.944;2023-02-13T02:52:42;23.33;;;15.10;;
2031;SDS011;27625;50.422;7.944;2023-02-13T02:55:19;22.20;;;14.50;;
2031;SDS011;27625;50.422;7.944;2023-02-13T02:57:54;21.03;;;14.73;;
2031;SDS011;27625;50.422;7.944;2023-02-13T03:00:53;24.63;;;14.90;;
2031;SDS011;27625;50.422;7.944;2023-02-13T03:03:41;25.80;;;15.97;;
2031;SDS011;27625;50.422;7.944;2023-02-13T03:06:29;24.20;;;15.37;;
2031;SDS011;27625;50.422;7.944;2023-02-13T03:09:01;25.13;;;14.53;;
2031;SDS011;27625;50.422;7.944;2023-02-13T03:11:48;23.50;;;15.33;;
2031;SDS011;27625;50.422;7.944;2023-02-13T03:14:33;24.10;;;16.17;;
2031;SDS011;27625;50.422;7.944;2023-02-13T03:17:00;25.33;;;16.30;;
2031;SDS011;27625;50.422;7.944;2023-02-13T03:19:48;23.63;;;16.57;;
2031;SDS011;27625;50.422;7.944;2023-02-13T03:22:43;26.47;;;16.13;;
2031;SDS011;27625;50.422;7.944;2023-02-13T03:25:14;30.60;;;17.13;;
2031;SDS011;27625;50.422;7.944;2023-02-13T03:27:56;31.63;;;17.63;;
2031;SDS011;27625;50.422;7.944;2023-02-13T03:30:59;25.67;;;15.90;;
2031;SDS011;27625;50.422;7.944;2023-02-13T03:33:38;29.77;;;18.30;;
2031;SDS011;27625;50.422;7.944;2023-02-13T03:36:17;28.40;;;17.30;;
2031;SDS011;27625;50.422;7.944;2023-02-13T03:39:08;31.27;;;17.30;;
2031;SDS011;27625;50.422;7.944;2023-02-13T03:41:43;30.87;;;18.27;;
2031;SDS011;27625;50.422;7.944;2023-02-13T03:44:25;30.57;;;17.70;;
2031;SDS011;27625;50.422;7.944;2023-02-13T03:46:56;28.10;;;17.10;;
2031;SDS011;27625;50.422;7.944;2023-02-13T03:49:28;28.17;;;17.13;;
2031;SDS011;27625;50.422;7.944;2023-02-13T03:52:16;27.00;;;17.70;;
2031;SDS011;27625;50.422;7.944;2023-02-13T03:54:48;30.27;;;17.30;;
2031;SDS011;27625;50.422;7.944;2023-02-13T03:57:35;32.00;;;17.70;;
2031;SDS011;27625;50.422;7.944;2023-02-13T04:00:22;31.37;;;18.50;;
2031;SDS011;27625;50.422;7.944;2023-02-13T04:02:53;27.30;;;17.50;;
2031;SDS011;27625;50.422;7.944;2023-02-13T04:05:25;26.43;;;16.37;;
2031;SDS011;27625;50.422;7.944;2023-02-13T04:07:54;29.30;;;18.30;;
2031;SDS011;27625;50.422;7.944;2023-02-13T04:10:30;31.10;;;16.70;;
2031;SDS011;27625;50.422;7.944;2023-02-13T04:13:01;27.70;;;17.30;;
2031;SDS011;27625;50.422;7.944;2023-02-13T04:15:31;25.87;;;16.10;;
2031;SDS011;27625;50.422;7.944;2023-02-13T04:18:02;24.43;;;16.80;;
2031;SDS011;27625;50.422;7.944;2023-02-13T04:20:33;26.20;;;16.97;;
2031;SDS011;27625;50.422;7.944;2023-02-13T04:23:03;31.10;;;16.53;;
2031;SDS011;27625;50.422;7.944;2023-02-13T04:25:32;26.10;;;15.97;;
2031;SDS011;27625;50.422;7.944;2023-02-13T04:28:01;28.63;;;16.63;;
2031;SDS011;27625;50.422;7.944;2023-02-13T04:30:30;30.20;;;15.80;;
2031;SDS011;27625;50.422;7.944;2023-02-13T04:32:57;23.70;;;14.70;;
2031;SDS011;27625;50.422;7.944;2023-02-13T04:35:26;25.70;;;16.47;;
2031;SDS011;27625;50.422;7.944;2023-02-13T04:37:52;23.37;;;15.67;;
2031;SDS011;27625;50.422;7.944;2023-02-13T04:40:21;24.20;;;16.37;;
2031;SDS011;27625;50.422;7.944;2023-02-13T04:42:49;24.30;;;15.90;;
2031;SDS011;27625;50.422;7.944;2023-02-13T04:45:16;24.60;;;16.40;;
2031;SDS011;27625;50.422;7.944;2023-02-13T04:47:45;27.30;;;16.07;;
2031;SDS011;27625;50.422;7.944;2023-02-13T04:50:15;26.83;;;15.43;;
2031;SDS011;27625;50.422;7.944;2023-02-13T04:52:42;26.43;;;17.87;;
2031;SDS011;27625;50.422;7.944;2023-02-13T04:55:09;27.73;;;17.60;;
2031;SDS011;27625;50.422;7.944;2023-02-13T04:57:36;25.67;;;18.47;;
2031;SDS011;27625;50.422;7.944;2023-02-13T05:00:05;26.77;;;17.67;;
2031;SDS011;27625;50.422;7.944;2023-02-13T05:02:35;29.67;;;17.10;;
2031;SDS011;27625;50.422;7.944;2023-02-13T05:05:02;25.60;;;16.47;;
2031;SDS011;27625;50.422;7.944;2023-02-13T05:07:29;25.60;;;15.60;;
2031;SDS011;27625;50.422;7.944;2023-02-13T05:09:56;25.87;;;17.83;;
2031;SDS011;27625;50.422;7.944;2023-02-13T05:12:23;22.83;;;16.30;;
2031;SDS011;27625;50.422;7.944;2023-02-13T05:14:50;26.03;;;16.77;;
2031;SDS011;27625;50.422;7.944;2023-02-13T05:17:18;23.40;;;16.77;;
2031;SDS011;27625;50.422;7.944;2023-02-13T05:19:45;27.93;;;17.50;;
2031;SDS011;27625;50.422;7.944;2023-02-13T05:22:13;21.57;;;15.27;;
2031;SDS011;27625;50.422;7.944;2023-02-13T05:24:58;23.27;;;16.40;;
2031;SDS011;27625;50.422;7.944;2023-02-13T05:27:24;22.37;;;15.00;;
2031;SDS011;27625;50.422;7.944;2023-02-13T05:29:52;21.20;;;14.90;;
2031;SDS011;27625;50.422;7.944;2023-02-13T05:32:20;23.73;;;14.83;;
2031;SDS011;27625;50.422;7.944;2023-02-13T05:34:47;18.70;;;13.73;;
2031;SDS011;27625;50.422;7.944;2023-02-13T05:37:13;20.50;;;14.33;;
2031;SDS011;27625;50.422;7.944;2023-02-13T05:39:41;18.53;;;14.23;;
2031;SDS011;27625;50.422;7.944;2023-02-13T05:42:15;22.43;;;15.07;;
2031;SDS011;27625;50.422;7.944;2023-02-13T05:44:42;20.03;;;13.87;;
2031;SDS011;27625;50.422;7.944;2023-02-13T05:47:10;23.53;;;14.97;;
2031;SDS011;27625;50.422;7.944;2023-02-13T05:49:39;22.83;;;14.80;;
2031;SDS011;27625;50.422;7.944;2023-02-13T05:52:08;21.83;;;16.30;;
2031;SDS011;27625;50.422;7.944;2023-02-13T05:54:40;22.60;;;14.70;;
2031;SDS011;27625;50.422;7.944;2023-02-13T05:57:14;22.57;;;14.47;;
2031;SDS011;27625;50.422;7.944;2023-02-13T05:59:42;22.90;;;14.33;;
2031;SDS011;27625;50.422;7.944;2023-02-13T06:02:09;25.57;;;15.87;;
2031;SDS011;27625;50.422;7.944;2023-02-13T06:04:41;22.33;;;13.87;;
2031;SDS011;27625;50.422;7.944;2023-02-13T06:07:08;25.00;;;16.60;;
2031;SDS011;27625;50.422;7.944;2023-02-13T06:09:36;23.50;;;16.10;;
2031;SDS011;27625;50.422;7.944;2023-02-13T06:12:02;26.10;;;15.60;;
2031;SDS011;27625;50.422;7.944;2023-02-13T06:14:37;22.87;;;16.53;;
2031;SDS011;27625;50.422;7.944;2023-02-13T06:17:04;29.07;;;17.70;;
2031;SDS011;27625;50.422;7.944;2023-02-13T06:19:32;28.67;;;17.63;;
2031;SDS011;27625;50.422;7.944;2023-02-13T06:22:00;26.17;;;16.30;;
2031;SDS011;27625;50.422;7.944;2023-02-13T06:24:27;27.23;;;18.20;;
2031;SDS011;27625;50.422;7.944;2023-02-13T06:26:55;31.50;;;18.03;;
2031;SDS011;27625;50.422;7.944;2023-02-13T06:29:23;27.37;;;16.70;;
2031;SDS011;27625;50.422;7.944;2023-02-13T06:31:51;26.47;;;17.63;;
2031;SDS011;27625;50.422;7.944;2023-02-13T06:34:18;26.00;;;17.60;;
2031;SDS011;27625;50.422;7.944;2023-02-13T06:36:46;28.30;;;16.40;;
2031;SDS011;27625;50.422;7.944;2023-02-13T06:39:14;25.80;;;16.63;;
2031;SDS011;27625;50.422;7.944;2023-02-13T06:41:40;24.20;;;17.43;;
2031;SDS011;27625;50.422;7.944;2023-02-13T06:44:07;28.17;;;18.23;;
2031;SDS011;27625;50.422;7.944;2023-02-13T06:46:34;28.20;;;17.87;;
2031;SDS011;27625;50.422;7.944;2023-02-13T06:49:01;33.00;;;18.70;;
2031;SDS011;27625;50.422;7.944;2023-02-13T06:51:27;28.77;;;18.80;;
2031;SDS011;27625;50.422;7.944;2023-02-13T06:53:54;24.30;;;16.40;;
2031;SDS011;27625;50.422;7.944;2023-02-13T06:56:22;26.80;;;17.83;;
2031;SDS011;27625;50.422;7.944;2023-02-13T06:58:51;30.10;;;17.90;;
2031;SDS011;27625;50.422;7.944;2023-02-13T07:01:18;27.10;;;16.57;;
2031;SDS011;27625;50.422;7.944;2023-02-13T07:03:44;24.87;;;16.50;;
2031;SDS011;27625;50.422;7.944;2023-02-13T07:06:15;28.50;;;18.20;;
2031;SDS011;27625;50.422;7.944;2023-02-13T07:08:43;29.07;;;19.20;;
2031;SDS011;27625;50.422;7.944;2023-02-13T07:11:15;28.80;;;17.90;;
2031;SDS011;27625;50.422;7.944;2023-02-13T07:13:44;27.10;;;17.87;;
2031;SDS011;27625;50.422;7.944;2023-02-13T07:16:11;26.03;;;16.17;;
2031;SDS011;27625;50.422;7.944;2023-02-13T07:18:37;26.10;;;17.00;;
2031;SDS011;27625;50.422;7.944;2023-02-13T07:21:04;26.90;;;16.57;;
2031;SDS011;27625;50.422;7.944;2023-02-13T07:23:32;24.80;;;15.60;;
2031;SDS011;27625;50.422;7.944;2023-02-13T07:25:58;22.70;;;16.60;;
2031;SDS011;27625;50.422;7.944;2023-02-13T07:28:26;23.30;;;15.50;;
2031;SDS011;27625;50.422;7.944;2023-02-13T07:30:56;25.17;;;17.60;;
2031;SDS011;27625;50.422;7.944;2023-02-13T07:33:27;25.27;;;17.80;;
2031;SDS011;27625;50.422;7.944;2023-02-13T07:35:53;24.40;;;17.63;;
2031;SDS011;27625;50.422;7.944;2023-02-13T07:38:20;32.87;;;21.40;;
2031;SDS011;27625;50.422;7.944;2023-02-13T07:40:46;29.27;;;19.47;;
2031;SDS011;27625;50.422;7.944;2023-02-13T07:43:14;28.70;;;19.53;;
2031;SDS011;27625;50.422;7.944;2023-02-13T07:45:40;27.63;;;17.50;;
2031;SDS011;27625;50.422;7.944;2023-02-13T07:48:08;26.70;;;17.10;;
2031;SDS011;27625;50.422;7.944;2023-02-13T07:50:35;28.00;;;18.47;;
2031;SDS011;27625;50.422;7.944;2023-02-13T07:53:04;26.60;;;18.10;;
2031;SDS011;27625;50.422;7.944;2023-02-13T07:55:36;29.53;;;19.27;;
2031;SDS011;27625;50.422;7.944;2023-02-13T07:58:03;28.00;;;18.80;;
2031;SDS011;27625;50.422;7.944;2023-02-13T08:00:32;27.63;;;16.80;;
2031;SDS011;27625;50.422;7.944;2023-02-13T08:02:59;29.60;;;17.93;;
2031;SDS011;27625;50.422;7.944;2023-02-13T08:05:27;25.50;;;17.00;;
2031;SDS011;27625;50.422;7.944;2023-02-13T08:07:59;24.10;;;17.77;;
2031;SDS011;27625;50.422;7.944;2023-02-13T08:10:26;24.70;;;17.70;;
2031;SDS011;27625;50.422;7.944;2023-02-13T08:13:10;26.20;;;18.07;;
2031;SDS011;27625;50.422;7.944;2023-02-13T08:15:38;23.90;;;16.57;;
2031;SDS011;27625;50.422;7.944;2023-02-13T08:18:05;28.87;;;18.60;;
2031;SDS011;27625;50.422;7.944;2023-02-13T08:20:33;28.33;;;19.70;;
2031;SDS011;27625;50.422;7.944;2023-02-13T08:23:05;26.53;;;18.00;;
2031;SDS011;27625;50.422;7.944;2023-02-13T08:25:36;25.90;;;17.93;;
2031;SDS011;27625;50.422;7.944;2023-02-13T08:28:09;28.20;;;18.07;;
2031;SDS011;27625;50.422;7.944;2023-02-13T08:30:39;23.03;;;16.43;;
2031;SDS011;27625;50.422;7.944;2023-02-13T08:33:07;25.77;;;17.50;;
2031;SDS011;27625;50.422;7.944;2023-02-13T08:35:36;24.50;;;16.20;;
2031;SDS011;27625;50.422;7.944;2023-02-13T08:38:03;27.00;;;17.43;;
2031;SDS011;27625;50.422;7.944;2023-02-13T08:40:32;28.17;;;18.73;;
2031;SDS011;27625;50.422;7.944;2023-02-13T08:43:00;26.77;;;17.27;;
2031;SDS011;27625;50.422;7.944;2023-02-13T08:45:28;25.13;;;16.90;;
2031;SDS011;27625;50.422;7.944;2023-02-13T08:47:55;22.07;;;15.40;;
2031;SDS011;27625;50.422;7.944;2023-02-13T08:50:22;24.83;;;16.87;;
2031;SDS011;27625;50.422;7.944;2023-02-13T08:52:52;21.90;;;15.80;;
2031;SDS011;27625;50.422;7.944;2023-02-13T08:55:20;23.30;;;16.17;;
2031;SDS011;27625;50.422;7.944;2023-02-13T08:57:47;22.63;;;15.60;;
2031;SDS011;27625;50.422;7.944;2023-02-13T09:00:14;23.53;;;16.27;;
2031;SDS011;27625;50.422;7.944;2023-02-13T09:02:47;23.50;;;16.07;;
2031;SDS011;27625;50.422;7.944;2023-02-13T09:05:20;23.50;;;16.17;;
2031;SDS011;27625;50.422;7.944;2023-02-13T09:07:48;20.83;;;15.50;;
2031;SDS011;27625;50.422;7.944;2023-02-13T09:12:52;23.00;;;14.90;;
2031;SDS011;27625;50.422;7.944;2023-02-13T09:15:32;23.13;;;15.50;;
2031;SDS011;27625;50.422;7.944;2023-02-13T09:17:59;22.33;;;15.67;;
2031;SDS011;27625;50.422;7.944;2023-02-13T09:20:26;21.13;;;14.97;;
2031;SDS011;27625;50.422;7.944;2023-02-13T09:22:53;19.83;;;14.27;;
2031;SDS011;27625;50.422;7.944;2023-02-13T09:25:21;21.97;;;15.00;;
2031;SDS011;27625;50.422;7.944;2023-02-13T09:27:59;22.40;;;15.23;;
2031;SDS011;27625;50.422;7.944;2023-02-13T09:30:27;22.77;;;15.57;;
2031;SDS011;27625;50.422;7.944;2023-02-13T09:32:53;21.27;;;15.70;;
2031;SDS011;27625;50.422;7.944;2023-02-13T09:35:21;21.23;;;13.30;;
2031;SDS011;27625;50.422;7.944;2023-02-13T09:37:56;19.43;;;14.80;;
2031;SDS011;27625;50.422;7.944;2023-02-13T09:40:28;22.07;;;16.17;;
2031;SDS011;27625;50.422;7.944;2023-02-13T09:43:06;20.27;;;14.27;;
2031;SDS011;27625;50.422;7.944;2023-02-13T09:45:45;22.00;;;14.37;;
2031;SDS011;27625;50.422;7.944;2023-02-13T09:48:14;19.17;;;13.17;;
2031;SDS011;27625;50.422;7.944;2023-02-13T09:50:44;20.60;;;14.20;;
2031;SDS011;27625;50.422;7.944;2023-02-13T09:53:19;17.73;;;12.33;;
2031;SDS011;27625;50.422;7.944;2023-02-13T09:55:48;17.50;;;12.63;;
2031;SDS011;27625;50.422;7.944;2023-02-13T09:58:30;17.60;;;12.90;;
2031;SDS011;27625;50.422;7.944;2023-02-13T10:01:02;19.20;;;14.30;;
2031;SDS011;27625;50.422;7.944;2023-02-13T10:03:33;19.30;;;13.57;;
2031;SDS011;27625;50.422;7.944;2023-02-13T10:06:04;19.07;;;13.10;;
2031;SDS011;27625;50.422;7.944;2023-02-13T10:08:43;18.33;;;13.77;;
2031;SDS011;27625;50.422;7.944;2023-02-13T10:11:20;19.70;;;13.57;;
2031;SDS011;27625;50.422;7.944;2023-02-13T10:14:00;21.53;;;13.43;;
2031;SDS011;27625;50.422;7.944;2023-02-13T10:16:34;18.10;;;12.63;;
2031;SDS011;27625;50.422;7.944;2023-02-13T10:19:11;18.93;;;13.00;;
2031;SDS011;27625;50.422;7.944;2023-02-13T10:21:50;18.43;;;13.10;;
2031;SDS011;27625;50.422;7.944;2023-02-13T10:24:20;16.50;;;11.57;;
2031;SDS011;27625;50.422;7.944;2023-02-13T10:26:53;17.43;;;12.47;;
2031;SDS011;27625;50.422;7.944;2023-02-13T10:29:24;18.87;;;12.60;;
2031;SDS011;27625;50.422;7.944;2023-02-13T10:32:19;16.00;;;11.90;;
2031;SDS011;27625;50.422;7.944;2023-02-13T10:34:48;18.10;;;12.03;;
2031;SDS011;27625;50.422;7.944;2023-02-13T10:39:49;16.83;;;12.10;;
2031;SDS011;27625;50.422;7.944;2023-02-13T10:42:20;18.67;;;12.87;;
2031;SDS011;27625;50.422;7.944;2023-02-13T10:44:53;18.23;;;11.73;;
2031;SDS011;27625;50.422;7.944;2023-02-13T10:47:33;15.90;;;10.90;;
2031;SDS011;27625;50.422;7.944;2023-02-13T10:50:17;13.17;;;9.73;;
2031;SDS011;27625;50.422;7.944;2023-02-13T10:52:51;11.10;;;7.50;;
2031;SDS011;27625;50.422;7.944;2023-02-13T10:55:43;10.47;;;7.77;;
2031;SDS011;27625;50.422;7.944;2023-02-13T10:58:26;10.90;;;8.90;;
2031;SDS011;27625;50.422;7.944;2023-02-13T11:01:00;12.03;;;8.70;;
2031;SDS011;27625;50.422;7.944;2023-02-13T11:03:30;10.43;;;8.00;;
2031;SDS011;27625;50.422;7.944;2023-02-13T11:05:57;12.50;;;9.40;;
2031;SDS011;27625;50.422;7.944;2023-02-13T11:08:27;10.10;;;7.27;;
2031;SDS011;27625;50.422;7.944;2023-02-13T11:10:57;11.10;;;8.13;;
2031;SDS011;27625;50.422;7.944;2023-02-13T11:13:24;10.30;;;7.77;;
2031;SDS011;27625;50.422;7.944;2023-02-13T11:16:01;9.43;;;7.27;;
2031;SDS011;27625;50.422;7.944;2023-02-13T11:18:31;9.93;;;7.33;;
2031;SDS011;27625;50.422;7.944;2023-02-13T11:21:03;10.97;;;8.10;;
2031;SDS011;27625;50.422;7.944;2023-02-13T11:23:34;10.20;;;7.30;;
2031;SDS011;27625;50.422;7.944;2023-02-13T11:26:05;11.50;;;8.03;;
2031;SDS011;27625;50.422;7.944;2023-02-13T11:28:36;11.97;;;8.70;;
2031;SDS011;27625;50.422;7.944;2023-02-13T11:31:09;11.60;;;8.00;;
2031;SDS011;27625;50.422;7.944;2023-02-13T11:33:40;11.70;;;8.50;;
2031;SDS011;27625;50.422;7.944;2023-02-13T11:36:07;12.80;;;8.80;;
2031;SDS011;27625;50.422;7.944;2023-02-13T11:38:36;11.03;;;8.40;;
2031;SDS011;27625;50.422;7.944;2023-02-13T11:41:05;11.27;;;8.07;;
2031;SDS011;27625;50.422;7.944;2023-02-13T11:43:36;11.10;;;7.57;;
2031;SDS011;27625;50.422;7.944;2023-02-13T11:46:12;10.33;;;8.10;;
2031;SDS011;27625;50.422;7.944;2023-02-13T11:48:42;11.90;;;8.10;;
2031;SDS011;27625;50.422;7.944;2023-02-13T11:51:10;10.70;;;7.67;;
2031;SDS011;27625;50.422;7.944;2023-02-13T11:53:38;8.90;;;7.10;;
2031;SDS011;27625;50.422;7.944;2023-02-13T11:56:07;10.03;;;7.17;;
2031;SDS011;27625;50.422;7.944;2023-02-13T11:58:35;12.07;;;9.13;;
2031;SDS011;27625;50.422;7.944;2023-02-13T12:03:56;12.50;;;8.73;;
2031;SDS011;27625;50.422;7.944;2023-02-13T12:06:27;11.87;;;8.70;;
2031;SDS011;27625;50.422;7.944;2023-02-13T12:08:54;12.30;;;7.90;;
2031;SDS011;27625;50.422;7.944;2023-02-13T12:11:23;10.27;;;7.47;;
2031;SDS011;27625;50.422;7.944;2023-02-13T12:13:59;10.10;;;7.80;;
2031;SDS011;27625;50.422;7.944;2023-02-13T12:16:29;9.70;;;7.30;;
2031;SDS011;27625;50.422;7.944;2023-02-13T12:18:59;10.37;;;7.87;;
2031;SDS011;27625;50.422;7.944;2023-02-13T12:21:32;14.07;;;9.37;;
2031;SDS011;27625;50.422;7.944;2023-02-13T12:24:11;9.80;;;7.50;;
2031;SDS011;27625;50.422;7.944;2023-02-13T12:26:46;10.13;;;7.73;;
2031;SDS011;27625;50.422;7.944;2023-02-13T12:29:20;12.00;;;8.67;;
2031;SDS011;27625;50.422;7.944;2023-02-13T12:32:04;13.70;;;8.50;;
2031;SDS011;27625;50.422;7.944;2023-02-13T12:37:41;12.33;;;9.03;;
2031;SDS011;27625;50.422;7.944;2023-02-13T12:40:47;12.67;;;8.90;;
2031;SDS011;27625;50.422;7.944;2023-02-13T12:43:34;13.07;;;8.47;;
2031;SDS011;27625;50.422;7.944;2023-02-13T12:46:25;11.60;;;8.20;;
2031;SDS011;27625;50.422;7.944;2023-02-13T12:48:58;11.93;;;8.57;;
2031;SDS011;27625;50.422;7.944;2023-02-13T12:51:34;11.10;;;8.50;;
2031;SDS011;27625;50.422;7.944;2023-02-13T12:54:10;11.60;;;8.20;;
2031;SDS011;27625;50.422;7.944;2023-02-13T12:59:36;13.17;;;9.23;;
2031;SDS011;27625;50.422;7.944;2023-02-13T13:02:24;11.30;;;8.57;;
2031;SDS011;27625;50.422;7.944;2023-02-13T13:05:22;13.30;;;7.93;;
2031;SDS011;27625;50.422;7.944;2023-02-13T13:08:10;11.67;;;8.07;;
2031;SDS011;27625;50.422;7.944;2023-02-13T13:10:46;13.47;;;9.23;;
2031;SDS011;27625;50.422;7.944;2023-02-13T13:13:22;11.63;;;8.20;;
2031;SDS011;27625;50.422;7.944;2023-02-13T13:15:55;10.50;;;7.53;;
2031;SDS011;27625;50.422;7.944;2023-02-13T13:18:28;11.07;;;8.30;;
2031;SDS011;27625;50.422;7.944;2023-02-13T13:21:04;9.50;;;7.67;;
2031;SDS011;27625;50.422;7.944;2023-02-13T13:23:37;13.17;;;7.90;;
2031;SDS011;27625;50.422;7.944;2023-02-13T13:26:11;12.30;;;7.73;;
2031;SDS011;27625;50.422;7.944;2023-02-13T13:28:45;11.93;;;8.00;;
2031;SDS011;27625;50.422;7.944;2023-02-13T13:31:15;13.73;;;7.80;;
2031;SDS011;27625;50.422;7.944;2023-02-13T13:33:42;10.17;;;7.50;;
2031;SDS011;27625;50.422;7.944;2023-02-13T13:36:13;10.77;;;7.50;;
2031;SDS011;27625;50.422;7.944;2023-02-13T13:38:47;11.33;;;7.10;;
2031;SDS011;27625;50.422;7.944;2023-02-13T13:41:20;12.93;;;6.80;;
2031;SDS011;27625;50.422;7.944;2023-02-13T13:43:54;9.40;;;7.03;;
2031;SDS011;27625;50.422;7.944;2023-02-13T13:46:30;9.77;;;7.00;;
2031;SDS011;27625;50.422;7.944;2023-02-13T13:49:12;10.03;;;7.10;;
2031;SDS011;27625;50.422;7.944;2023-02-13T13:51:48;10.37;;;7.40;;
2031;SDS011;27625;50.422;7.944;2023-02-13T13:54:23;10.23;;;8.03;;
2031;SDS011;27625;50.422;7.944;2023-02-13T13:57:05;15.97;;;8.07;;
2031;SDS011;27625;50.422;7.944;2023-02-13T13:59:55;8.70;;;6.57;;
2031;SDS011;27625;50.422;7.944;2023-02-13T14:02:36;10.33;;;7.67;;
2031;SDS011;27625;50.422;7.944;2023-02-13T14:05:14;9.03;;;6.60;;
2031;SDS011;27625;50.422;7.944;2023-02-13T14:07:48;11.30;;;7.50;;
2031;SDS011;27625;50.422;7.944;2023-02-13T14:13:32;10.20;;;7.10;;
2031;SDS011;27625;50.422;7.944;2023-02-13T14:16:00;10.20;;;6.87;;
2031;SDS011;27625;50.422;7.944;2023-02-13T14:18:27;9.10;;;6.47;;
2031;SDS011;27625;50.422;7.944;2023-02-13T14:20:55;8.10;;;6.30;;
2031;SDS011;27625;50.422;7.944;2023-02-13T14:23:31;8.40;;;6.50;;
2031;SDS011;27625;50.422;7.944;2023-02-13T14:26:09;11.67;;;6.83;;
2031;SDS011;27625;50.422;7.944;2023-02-13T14:28:38;9.87;;;6.97;;
2031;SDS011;27625;50.422;7.944;2023-02-13T14:31:07;9.70;;;7.10;;
2031;SDS011;27625;50.422;7.944;2023-02-13T14:33:41;9.07;;;6.27;;
2031;SDS011;27625;50.422;7.944;2023-02-13T14:36:15;8.60;;;6.37;;
2031;SDS011;27625;50.422;7.944;2023-02-13T14:38:54;9.27;;;6.57;;
2031;SDS011;27625;50.422;7.944;2023-02-13T14:41:40;8.10;;;5.77;;
2031;SDS011;27625;50.422;7.944;2023-02-13T14:44:15;9.00;;;6.20;;
2031;SDS011;27625;50.422;7.944;2023-02-13T14:46:44;9.20;;;6.13;;
2031;SDS011;27625;50.422;7.944;2023-02-13T14:49:12;8.47;;;5.87;;
2031;SDS011;27625;50.422;7.944;2023-02-13T14:51:44;8.60;;;6.20;;
2031;SDS011;27625;50.422;7.944;2023-02-13T14:54:16;7.07;;;5.27;;
2031;SDS011;27625;50.422;7.944;2023-02-13T14:56:47;6.70;;;5.47;;
2031;SDS011;27625;50.422;7.944;2023-02-13T14:59:15;9.03;;;5.83;;
2031;SDS011;27625;50.422;7.944;2023-02-13T15:01:47;8.00;;;5.50;;
2031;SDS011;27625;50.422;7.944;2023-02-13T15:04:16;11.53;;;5.40;;
2031;SDS011;27625;50.422;7.944;2023-02-13T15:06:46;8.47;;;5.57;;
2031;SDS011;27625;50.422;7.944;2023-02-13T15:09:18;8.40;;;5.40;;
2031;SDS011;27625;50.422;7.944;2023-02-13T15:11:57;8.03;;;5.57;;
2031;SDS011;27625;50.422;7.944;2023-02-13T15:14:27;6.83;;;5.00;;
2031;SDS011;27625;50.422;7.944;2023-02-13T15:16:57;8.07;;;5.23;;
2031;SDS011;27625;50.422;7.944;2023-02-13T15:19:27;8.17;;;5.33;;
2031;SDS011;27625;50.422;7.944;2023-02-13T15:21:55;8.50;;;5.27;;
2031;SDS011;27625;50.422;7.944;2023-02-13T15:24:24;6.40;;;5.00;;
2031;SDS011;27625;50.422;7.944;2023-02-13T15:26:53;6.50;;;4.73;;
2031;SDS011;27625;50.422;7.944;2023-02-13T15:29:23;7.20;;;5.20;;
2031;SDS011;27625;50.422;7.944;2023-02-13T15:31:50;7.10;;;5.27;;
2031;SDS011;27625;50.422;7.944;2023-02-13T15:34:18;6.77;;;5.10;;
2031;SDS011;27625;50.422;7.944;2023-02-13T15:36:47;8.70;;;5.37;;
2031;SDS011;27625;50.422;7.944;2023-02-13T15:39:15;7.60;;;5.30;;